Observation data for Northfield on 04/21/2019      Previous  Date       Current Mesonet Observations  Soil Data  Daily Summary Page  Observations in Plain Language
KNOR 210500Z 17015KT 20/07 A2979 RMK A01 T02040067  RH  042%=      5-min Rain = 0
KNOR 210505Z 17015KT 20/07 A2979 RMK A01 T02040066  RH  042%=      5-min Rain = 0
KNOR 210510Z 17015G21KT 20/07 A2979 RMK A01 T02040066  RH  042%=      5-min Rain = 0
KNOR 210515Z 18015G22KT 21/07 A2978 RMK A01 T02060065  RH  041%=      5-min Rain = 0
KNOR 210520Z 18016G21KT 21/07 A2978 RMK A01 T02050065  RH  041%=      5-min Rain = 0
KNOR 210525Z 18016G21KT 21/06 A2979 RMK A01 T02050064  RH  041%=      5-min Rain = 0
KNOR 210530Z 17015KT 21/06 A2979 RMK A01 T02050064  RH  041%=      5-min Rain = 0
KNOR 210535Z 17015G20KT 20/06 A2979 RMK A01 T02030064  RH  042%=      5-min Rain = 0
KNOR 210540Z 17015G21KT 20/06 A2979 RMK A01 T02030064  RH  042%=      5-min Rain = 0
KNOR 210545Z 17015G21KT 20/06 A2979 RMK A01 T02020064  RH  042%=      5-min Rain = 0
KNOR 210550Z 17014G19KT 20/06 A2979 RMK A01 T02000064  RH  042%=      5-min Rain = 0
KNOR 210555Z 17013KT 20/07 A2979 RMK A01 T01970065  RH  043%=      5-min Rain = 0
KNOR 210600Z 17014G19KT 20/07 A2978 RMK A01 T01950065  RH  044%=      5-min Rain = 0
KNOR 210605Z 18013KT 19/07 A2978 RMK A01 T01930066  RH  045%=      5-min Rain = 0
KNOR 210610Z 18013G18KT 19/07 A2978 RMK A01 T01910066  RH  045%=      5-min Rain = 0
KNOR 210615Z 18013KT 19/07 A2978 RMK A01 T01890067  RH  046%=      5-min Rain = 0
KNOR 210620Z 18013KT 19/07 A2978 RMK A01 T01870067  RH  047%=      5-min Rain = 0
KNOR 210625Z 18011G16KT 18/07 A2978 RMK A01 T01840068  RH  048%=      5-min Rain = 0
KNOR 210630Z 18011KT 18/07 A2978 RMK A01 T01800068  RH  049%=      5-min Rain = 0
KNOR 210635Z 18010KT 18/07 A2978 RMK A01 T01780069  RH  050%=      5-min Rain = 0
KNOR 210640Z 19011KT 18/07 A2978 RMK A01 T01780069  RH  050%=      5-min Rain = 0
KNOR 210645Z 19010KT 18/07 A2978 RMK A01 T01770069  RH  050%=      5-min Rain = 0
KNOR 210650Z 19011KT 18/07 A2978 RMK A01 T01780068  RH  050%=      5-min Rain = 0
KNOR 210655Z 19011KT 18/07 A2978 RMK A01 T01780068  RH  050%=      5-min Rain = 0
KNOR 210700Z 19011KT 18/07 A2978 RMK A01 T01770068  RH  050%=      5-min Rain = 0
KNOR 210705Z 19010KT 18/07 A2977 RMK A01 T01780068  RH  050%=      5-min Rain = 0
KNOR 210710Z 19009KT 18/07 A2977 RMK A01 T01750069  RH  051%=      5-min Rain = 0
KNOR 210715Z 19010KT 17/07 A2977 RMK A01 T01740069  RH  052%=      5-min Rain = 0
KNOR 210720Z 19010KT 17/07 A2977 RMK A01 T01740069  RH  051%=      5-min Rain = 0
KNOR 210725Z 19009KT 17/07 A2977 RMK A01 T01720070  RH  052%=      5-min Rain = 0
KNOR 210730Z 19009KT 17/07 A2977 RMK A01 T01710070  RH  053%=      5-min Rain = 0
KNOR 210735Z 19009KT 17/07 A2977 RMK A01 T01720071  RH  053%=      5-min Rain = 0
KNOR 210740Z 19008KT 17/07 A2977 RMK A01 T01710071  RH  053%=      5-min Rain = 0
KNOR 210745Z 20007KT 17/07 A2977 RMK A01 T01690071  RH  054%=      5-min Rain = 0
KNOR 210750Z 20007KT 17/07 A2977 RMK A01 T01650071  RH  055%=      5-min Rain = 0
KNOR 210755Z 19008KT 16/07 A2977 RMK A01 T01620071  RH  056%=      5-min Rain = 0
KNOR 210800Z 19009KT 16/07 A2977 RMK A01 T01620072  RH  057%=      5-min Rain = 0
KNOR 210805Z 20009KT 17/07 A2976 RMK A01 T01650073  RH  056%=      5-min Rain = 0
KNOR 210810Z 20009KT 17/07 A2976 RMK A01 T01690073  RH  055%=      5-min Rain = 0
KNOR 210815Z 20010KT 17/07 A2976 RMK A01 T01720074  RH  054%=      5-min Rain = 0
KNOR 210820Z 20011KT 18/07 A2976 RMK A01 T01770074  RH  052%=      5-min Rain = 0
KNOR 210825Z 20012KT 18/07 A2976 RMK A01 T01810074  RH  051%=      5-min Rain = 0
KNOR 210830Z 20011KT 18/07 A2976 RMK A01 T01840074  RH  050%=      5-min Rain = 0
KNOR 210835Z 20011KT 19/07 A2976 RMK A01 T01850074  RH  050%=      5-min Rain = 0
KNOR 210840Z 20011G16KT 19/07 A2976 RMK A01 T01860074  RH  049%=      5-min Rain = 0
KNOR 210845Z 21011G17KT 19/07 A2977 RMK A01 T01870074  RH  049%=      5-min Rain = 0
KNOR 210850Z 20012KT 19/07 A2976 RMK A01 T01880074  RH  049%=      5-min Rain = 0
KNOR 210855Z 20011G18KT 19/07 A2976 RMK A01 T01870074  RH  049%=      5-min Rain = 0
KNOR 210900Z 20011G16KT 19/07 A2976 RMK A01 T01880074  RH  049%=      5-min Rain = 0
KNOR 210905Z 20012G18KT 19/08 A2976 RMK A01 T01880075  RH  049%=      5-min Rain = 0
KNOR 210910Z 20012G17KT 19/08 A2975 RMK A01 T01880075  RH  049%=      5-min Rain = 0
KNOR 210915Z 20012KT 19/08 A2975 RMK A01 T01870075  RH  049%=      5-min Rain = 0
KNOR 210920Z 20011KT 19/08 A2975 RMK A01 T01860075  RH  050%=      5-min Rain = 0
KNOR 210925Z 20011G16KT 19/08 A2975 RMK A01 T01860076  RH  050%=      5-min Rain = 0
KNOR 210930Z 21011G16KT 18/08 A2975 RMK A01 T01840076  RH  051%=      5-min Rain = 0
KNOR 210935Z 20011KT 18/08 A2975 RMK A01 T01840077  RH  051%=      5-min Rain = 0
KNOR 210940Z 20010KT 18/08 A2975 RMK A01 T01840077  RH  051%=      5-min Rain = 0
KNOR 210945Z 20013G20KT 19/08 A2975 RMK A01 T01860078  RH  051%=      5-min Rain = 0
KNOR 210950Z 20010G15KT 19/08 A2975 RMK A01 T01860078  RH  051%=      5-min Rain = 0
KNOR 210955Z 20011G18KT 18/08 A2975 RMK A01 T01840078  RH  051%=      5-min Rain = 0
KNOR 211000Z 20011KT 19/08 A2975 RMK A01 T01850078  RH  051%=      5-min Rain = 0
KNOR 211005Z 20011KT 19/08 A2975 RMK A01 T01850078  RH  051%=      5-min Rain = 0
KNOR 211010Z 20011G16KT 18/08 A2975 RMK A01 T01840079  RH  052%=      5-min Rain = 0
KNOR 211015Z 20012KT 19/08 A2975 RMK A01 T01870079  RH  051%=      5-min Rain = 0
KNOR 211020Z 20012KT 19/08 A2975 RMK A01 T01860079  RH  051%=      5-min Rain = 0
KNOR 211025Z 19011KT 19/08 A2975 RMK A01 T01860080  RH  052%=      5-min Rain = 0
KNOR 211030Z 19011G16KT 19/08 A2975 RMK A01 T01860080  RH  052%=      5-min Rain = 0
KNOR 211035Z 19012KT 18/08 A2975 RMK A01 T01840081  RH  052%=      5-min Rain = 0
KNOR 211040Z 19012KT 19/08 A2975 RMK A01 T01870081  RH  052%=      5-min Rain = 0
KNOR 211045Z 19011G17KT 19/08 A2975 RMK A01 T01860082  RH  052%=      5-min Rain = 0
KNOR 211050Z 19011KT 19/08 A2975 RMK A01 T01870082  RH  052%=      5-min Rain = 0
KNOR 211055Z 20010G15KT 19/08 A2976 RMK A01 T01870083  RH  052%=      5-min Rain = 0
KNOR 211100Z 21011KT 19/08 A2976 RMK A01 T01880083  RH  052%=      5-min Rain = 0
KNOR 211105Z 21010G16KT 19/08 A2976 RMK A01 T01880083  RH  052%=      5-min Rain = 0
KNOR 211110Z 20010KT 19/08 A2976 RMK A01 T01860084  RH  053%=      5-min Rain = 0
KNOR 211115Z 20009KT 19/08 A2976 RMK A01 T01850084  RH  053%=      5-min Rain = 0
KNOR 211120Z 21009KT 18/08 A2977 RMK A01 T01830084  RH  054%=      5-min Rain = 0
KNOR 211125Z 20009KT 18/08 A2976 RMK A01 T01820084  RH  054%=      5-min Rain = 0
KNOR 211130Z 20009KT 18/09 A2976 RMK A01 T01790085  RH  055%=      5-min Rain = 0
KNOR 211135Z 19011KT 18/09 A2976 RMK A01 T01780085  RH  056%=      5-min Rain = 0
KNOR 211140Z 19012KT 18/09 A2976 RMK A01 T01790085  RH  056%=      5-min Rain = 0
KNOR 211145Z 20013G18KT 18/09 A2976 RMK A01 T01810085  RH  055%=      5-min Rain = 0
KNOR 211150Z 20011KT 18/09 A2976 RMK A01 T01780085  RH  056%=      5-min Rain = 0
KNOR 211155Z 20011G16KT 18/09 A2977 RMK A01 T01790086  RH  056%=      5-min Rain = 0
KNOR 211200Z 20010KT 18/09 A2977 RMK A01 T01770086  RH  057%=      5-min Rain = 0
KNOR 211205Z 21010KT 18/09 A2977 RMK A01 T01770086  RH  057%=      5-min Rain = 0
KNOR 211210Z 21010KT 18/09 A2977 RMK A01 T01750086  RH  058%=      5-min Rain = 0
KNOR 211215Z 22010KT 17/09 A2978 RMK A01 T01740086  RH  058%=      5-min Rain = 0
KNOR 211220Z 23009KT 17/09 A2978 RMK A01 T01720087  RH  059%=      5-min Rain = 0
KNOR 211225Z 24009KT 17/09 A2979 RMK A01 T01720087  RH  059%=      5-min Rain = 0
KNOR 211230Z 25008KT 17/09 A2979 RMK A01 T01720087  RH  059%=      5-min Rain = 0
KNOR 211235Z 23007KT 17/09 A2979 RMK A01 T01720087  RH  059%=      5-min Rain = 0
KNOR 211240Z 21007KT 17/09 A2979 RMK A01 T01710087  RH  059%=      5-min Rain = 0
KNOR 211245Z 20004KT 17/09 A2979 RMK A01 T01720087  RH  059%=      5-min Rain = 0
KNOR 211250Z 18003KT 18/09 A2979 RMK A01 T01770087  RH  057%=      5-min Rain = 0
KNOR 211255Z 14002KT 18/09 A298 RMK A01 T01830087  RH  055%=      5-min Rain = 0
KNOR 211300Z 14002KT 19/09 A298 RMK A01 T01870087  RH  054%=      5-min Rain = 0
KNOR 211305Z 17004KT 19/09 A298 RMK A01 T01880088  RH  054%=      5-min Rain = 0
KNOR 211310Z 19006KT 19/09 A298 RMK A01 T01870089  RH  054%=      5-min Rain = 0
KNOR 211315Z 20008KT 19/09 A298 RMK A01 T01880089  RH  054%=      5-min Rain = 0
KNOR 211320Z 21008KT 19/09 A298 RMK A01 T01890090  RH  054%=      5-min Rain = 0
KNOR 211325Z 22007KT 19/09 A298 RMK A01 T01910091  RH  054%=      5-min Rain = 0
KNOR 211330Z 22005KT 19/09 A298 RMK A01 T01940092  RH  053%=      5-min Rain = 0
KNOR 211335Z 23004KT 20/09 A298 RMK A01 T01950090  RH  052%=      5-min Rain = 0
KNOR 211340Z 22002KT 20/09 A2981 RMK A01 T01980090  RH  051%=      5-min Rain = 0
KNOR 211345Z 19003KT 20/09 A2981 RMK A01 T01990089  RH  051%=      5-min Rain = 0
KNOR 211350Z 21003KT 20/09 A2981 RMK A01 T02010089  RH  050%=      5-min Rain = 0
KNOR 211355Z 22004KT 20/09 A298 RMK A01 T02030090  RH  050%=      5-min Rain = 0
KNOR 211400Z 21006KT 21/09 A298 RMK A01 T02070093  RH  049%=      5-min Rain = 0
KNOR 211405Z 22006G11KT 21/09 A298 RMK A01 T02110092  RH  048%=      5-min Rain = 0
KNOR 211410Z 22011KT 22/09 A298 RMK A01 T02150091  RH  046%=      5-min Rain = 0
KNOR 211415Z 23011G17KT 22/09 A298 RMK A01 T02180090  RH  045%=      5-min Rain = 0
KNOR 211420Z 22011G17KT 22/09 A298 RMK A01 T02210089  RH  044%=      5-min Rain = 0
KNOR 211425Z 22013KT 22/09 A298 RMK A01 T02240089  RH  044%=      5-min Rain = 0
KNOR 211430Z 22012KT 23/09 A2979 RMK A01 T02250090  RH  043%=      5-min Rain = 0
KNOR 211435Z 22014KT 23/09 A2979 RMK A01 T02270089  RH  043%=      5-min Rain = 0
KNOR 211440Z 22013KT 23/09 A2979 RMK A01 T02290089  RH  042%=      5-min Rain = 0
KNOR 211445Z 23013KT 23/09 A2979 RMK A01 T02320090  RH  042%=      5-min Rain = 0
KNOR 211450Z 22012KT 23/09 A2979 RMK A01 T02340090  RH  041%=      5-min Rain = 0
KNOR 211455Z 23012KT 24/09 A2979 RMK A01 T02360089  RH  040%=      5-min Rain = 0
KNOR 211500Z 23012KT 24/09 A2979 RMK A01 T02390089  RH  040%=      5-min Rain = 0
KNOR 211505Z 23012KT 24/09 A2979 RMK A01 T02400088  RH  039%=      5-min Rain = 0
KNOR 211510Z 23010KT 24/09 A2979 RMK A01 T02440089  RH  038%=      5-min Rain = 0
KNOR 211515Z 24011KT 25/09 A2979 RMK A01 T02460087  RH  037%=      5-min Rain = 0
KNOR 211520Z 23011G16KT 25/09 A2979 RMK A01 T02480088  RH  037%=      5-min Rain = 0
KNOR 211525Z 22011KT 25/09 A2979 RMK A01 T02480087  RH  037%=      5-min Rain = 0
KNOR 211530Z 23010KT 25/09 A2979 RMK A01 T02510087  RH  036%=      5-min Rain = 0
KNOR 211535Z 22009KT 25/09 A2979 RMK A01 T02540088  RH  036%=      5-min Rain = 0
KNOR 211540Z 24009KT 26/09 A2979 RMK A01 T02550086  RH  035%=      5-min Rain = 0
KNOR 211545Z 22009KT 26/08 A2979 RMK A01 T02590084  RH  034%=      5-min Rain = 0
KNOR 211550Z 24007KT 26/08 A2979 RMK A01 T02590083  RH  034%=      5-min Rain = 0
KNOR 211555Z 22009KT 26/08 A2979 RMK A01 T02570083  RH  034%=      5-min Rain = 0
KNOR 211600Z 23008KT 26/09 A2979 RMK A01 T02640086  RH  034%=      5-min Rain = 0
KNOR 211605Z 22008KT 26/08 A2979 RMK A01 T02630083  RH  033%=      5-min Rain = 0
KNOR 211610Z 23007KT 27/08 A2979 RMK A01 T02660083  RH  032%=      5-min Rain = 0
KNOR 211615Z 22007KT 27/08 A2979 RMK A01 T02680081  RH  032%=      5-min Rain = 0
KNOR 211620Z 21007KT 27/08 A2979 RMK A01 T02690079  RH  031%=      5-min Rain = 0
KNOR 211625Z 22008KT 27/08 A2979 RMK A01 T02700081  RH  031%=      5-min Rain = 0
KNOR 211630Z 24004KT 27/08 A2979 RMK A01 T02720083  RH  031%=      5-min Rain = 0
KNOR 211635Z 21005KT 27/08 A2979 RMK A01 T02730083  RH  031%=      5-min Rain = 0
KNOR 211640Z 23005KT 28/08 A2979 RMK A01 T02770083  RH  030%=      5-min Rain = 0
KNOR 211645Z 21005KT 28/08 A2979 RMK A01 T02780082  RH  030%=      5-min Rain = 0
KNOR 211650Z 21006KT 28/08 A2979 RMK A01 T02800080  RH  029%=      5-min Rain = 0
KNOR 211655Z 23006KT 28/08 A2979 RMK A01 T02830079  RH  028%=      5-min Rain = 0
KNOR 211700Z 20006KT 28/08 A2979 RMK A01 T02830076  RH  028%=      5-min Rain = 0
KNOR 211705Z 19007KT 29/08 A2979 RMK A01 T02880080  RH  028%=      5-min Rain = 0
KNOR 211710Z 19007G12KT 29/08 A2979 RMK A01 T02910084  RH  028%=      5-min Rain = 0
KNOR 211715Z 21007G12KT 29/08 A2979 RMK A01 T02910083  RH  028%=      5-min Rain = 0
KNOR 211720Z 19006KT 29/08 A2979 RMK A01 T02940084  RH  028%=      5-min Rain = 0
KNOR 211725Z 19008KT 29/08 A2979 RMK A01 T02940082  RH  027%=      5-min Rain = 0
KNOR 211730Z 18008KT 30/08 A2979 RMK A01 T02960083  RH  027%=      5-min Rain = 0
KNOR 211735Z 19007KT 30/08 A2979 RMK A01 T02960079  RH  026%=      5-min Rain = 0
KNOR 211740Z 19007G12KT 30/08 A2979 RMK A01 T02970082  RH  027%=      5-min Rain = 0
KNOR 211745Z 17005KT 30/08 A2979 RMK A01 T02980080  RH  026%=      5-min Rain = 0
KNOR 211750Z 15006G12KT 30/08 A2979 RMK A01 T03000081  RH  026%=      5-min Rain = 0
KNOR 211755Z 17005G10KT 30/08 A2978 RMK A01 T03040081  RH  026%=      5-min Rain = 0
KNOR 211800Z 19007KT 30/08 A2978 RMK A01 T03040080  RH  025%=      5-min Rain = 0
KNOR 211805Z 17005KT 31/08 A2978 RMK A01 T03080077  RH  024%=      5-min Rain = 0
KNOR 211810Z 17004G10KT 31/08 A2978 RMK A01 T03110083  RH  025%=      5-min Rain = 0
KNOR 211815Z 16004KT 31/08 A2978 RMK A01 T03110077  RH  024%=      5-min Rain = 0
KNOR 211820Z 17006KT 31/08 A2977 RMK A01 T03130079  RH  024%=      5-min Rain = 0
KNOR 211825Z 17004G9KT 31/08 A2977 RMK A01 T03130076  RH  023%=      5-min Rain = 0
KNOR 211830Z 17005KT 32/08 A2977 RMK A01 T03180079  RH  023%=      5-min Rain = 0
KNOR 211835Z 13007G12KT 32/10 A2977 RMK A01 T03160095  RH  026%=      5-min Rain = 0
KNOR 211840Z 14008G13KT 32/10 A2977 RMK A01 T03150096  RH  027%=      5-min Rain = 0
KNOR 211845Z 16010KT 32/10 A2977 RMK A01 T03180097  RH  026%=      5-min Rain = 0
KNOR 211850Z 14010KT 32/11 A2976 RMK A01 T03190107  RH  028%=      5-min Rain = 0
KNOR 211855Z 14009KT 32/11 A2976 RMK A01 T03180105  RH  028%=      5-min Rain = 0
KNOR 211900Z 15010G15KT 32/10 A2976 RMK A01 T03200102  RH  027%=      5-min Rain = 0
KNOR 211905Z 16012KT 32/10 A2976 RMK A01 T03190100  RH  027%=      5-min Rain = 0
KNOR 211910Z 16010G19KT 32/09 A2976 RMK A01 T03240091  RH  024%=      5-min Rain = 0
KNOR 211915Z 18007G13KT 33/09 A2976 RMK A01 T03280085  RH  023%=      5-min Rain = 0
KNOR 211920Z 16009KT 33/07 A2976 RMK A01 T03260070  RH  021%=      5-min Rain = 0
KNOR 211925Z 17011KT 33/07 A2976 RMK A01 T03300069  RH  020%=      5-min Rain = 0
KNOR 211930Z 16009G14KT 33/07 A2975 RMK A01 T03320072  RH  020%=      5-min Rain = 0
KNOR 211935Z 16011KT 33/08 A2976 RMK A01 T03300078  RH  022%=      5-min Rain = 0
KNOR 211940Z 17010G15KT 33/07 A2975 RMK A01 T03340068  RH  020%=      5-min Rain = 0
KNOR 211945Z 17011KT 34/07 A2975 RMK A01 T03350072  RH  020%=      5-min Rain = 0
KNOR 211950Z 20008G13KT 34/02 A2975 RMK A01 T03420017  RH  013%=      5-min Rain = 0
KNOR 211955Z 19010G17KT 34/06 A2975 RMK A01 T03360060  RH  018%=      5-min Rain = 0
KNOR 212000Z 23009KT 34/M00 A2975 RMK A01 T03401004  RH  011%=      5-min Rain = 0
KNOR 212005Z 23009G15KT 34/M00 A2975 RMK A01 T03431003  RH  011%=      5-min Rain = 0
KNOR 212010Z 22011G16KT 34/M01 A2975 RMK A01 T03431009  RH  011%=      5-min Rain = 0
KNOR 212015Z 24013KT 34/M01 A2974 RMK A01 T03441007  RH  011%=      5-min Rain = 0
KNOR 212020Z 24012G17KT 34/M01 A2974 RMK A01 T03421010  RH  011%=      5-min Rain = 0
KNOR 212025Z 22010KT 35/M00 A2974 RMK A01 T03451003  RH  011%=      5-min Rain = 0
KNOR 212030Z 23012G17KT 34/M01 A2974 RMK A01 T03441007  RH  011%=      5-min Rain = 0
KNOR 212035Z 24012G17KT 35/M00 A2974 RMK A01 T03461004  RH  011%=      5-min Rain = 0
KNOR 212040Z 24010G18KT 34/M01 A2974 RMK A01 T03441009  RH  011%=      5-min Rain = 0
KNOR 212045Z 23012G20KT 35/M00 A2974 RMK A01 T03451002  RH  011%=      5-min Rain = 0
KNOR 212050Z 24012G17KT 34/M01 A2974 RMK A01 T03431013  RH  010%=      5-min Rain = 0
KNOR 212055Z 24016G22KT 34/M01 A2974 RMK A01 T03421009  RH  011%=      5-min Rain = 0
KNOR 212100Z 24012G18KT 34/M01 A2974 RMK A01 T03421012  RH  011%=      5-min Rain = 0
KNOR 212105Z 23015G20KT 34/M01 A2973 RMK A01 T03421012  RH  010%=      5-min Rain = 0
KNOR 212110Z 23013G21KT 34/M01 A2973 RMK A01 T03431005  RH  011%=      5-min Rain = 0
KNOR 212115Z 23011KT 34/M01 A2973 RMK A01 T03431009  RH  011%=      5-min Rain = 0
KNOR 212120Z 24014KT 34/M01 A2973 RMK A01 T03431008  RH  011%=      5-min Rain = 0
KNOR 212125Z 23014KT 34/M01 A2973 RMK A01 T03411011  RH  011%=      5-min Rain = 0
KNOR 212130Z 23015G25KT 34/M01 A2973 RMK A01 T03421011  RH  011%=      5-min Rain = 0
KNOR 212135Z 23015G22KT 34/M01 A2973 RMK A01 T03421006  RH  011%=      5-min Rain = 0
KNOR 212140Z 22015KT 34/M02 A2973 RMK A01 T03401020  RH  010%=      5-min Rain = 0
KNOR 212145Z 22012G17KT 34/M02 A2973 RMK A01 T03411015  RH  010%=      5-min Rain = 0
KNOR 212150Z 23014G23KT 34/M01 A2973 RMK A01 T03411012  RH  011%=      5-min Rain = 0
KNOR 212155Z 23016G21KT 34/M02 A2973 RMK A01 T03401017  RH  010%=      5-min Rain = 0
KNOR 212200Z 23013G18KT 34/M01 A2972 RMK A01 T03411013  RH  011%=      5-min Rain = 0
KNOR 212205Z 21013G19KT 34/M01 A2972 RMK A01 T03421009  RH  011%=      5-min Rain = 0
KNOR 212210Z 21016G21KT 34/M01 A2972 RMK A01 T03401014  RH  010%=      5-min Rain = 0
KNOR 212215Z 22016G23KT 34/M01 A2972 RMK A01 T03391014  RH  011%=      5-min Rain = 0
KNOR 212220Z 21014G23KT 34/M01 A2973 RMK A01 T03401010  RH  011%=      5-min Rain = 0
KNOR 212225Z 21014KT 34/M01 A2973 RMK A01 T03391013  RH  011%=      5-min Rain = 0
KNOR 212230Z 21015KT 34/M01 A2972 RMK A01 T03401012  RH  011%=      5-min Rain = 0
KNOR 212235Z 21015G20KT 34/M02 A2972 RMK A01 T03371020  RH  010%=      5-min Rain = 0
KNOR 212240Z 22015G21KT 34/M02 A2972 RMK A01 T03361019  RH  010%=      5-min Rain = 0
KNOR 212245Z 22015G22KT 34/M01 A2972 RMK A01 T03371013  RH  011%=      5-min Rain = 0
KNOR 212250Z 21016G22KT 34/M02 A2972 RMK A01 T03351019  RH  010%=      5-min Rain = 0
KNOR 212255Z 21017G22KT 33/M02 A2972 RMK A01 T03341019  RH  010%=      5-min Rain = 0
KNOR 212300Z 21015KT 33/M02 A2973 RMK A01 T03331019  RH  010%=      5-min Rain = 0
KNOR 212305Z 21014G20KT 33/M02 A2973 RMK A01 T03331016  RH  011%=      5-min Rain = 0
KNOR 212310Z 21015G21KT 33/M02 A2973 RMK A01 T03331017  RH  011%=      5-min Rain = 0
KNOR 212315Z 22014G19KT 33/M02 A2973 RMK A01 T03321016  RH  011%=      5-min Rain = 0
KNOR 212320Z 22013G20KT 33/M01 A2973 RMK A01 T03311014  RH  011%=      5-min Rain = 0
KNOR 212325Z 21011G19KT 33/M01 A2973 RMK A01 T03321007  RH  012%=      5-min Rain = 0
KNOR 212330Z 21013G19KT 33/M01 A2973 RMK A01 T03301009  RH  012%=      5-min Rain = 0
KNOR 212335Z 21013KT 33/M01 A2973 RMK A01 T03291008  RH  012%=      5-min Rain = 0
KNOR 212340Z 21013G19KT 33/M00 A2973 RMK A01 T03281003  RH  012%=      5-min Rain = 0
KNOR 212345Z 20012G17KT 33/00 A2973 RMK A01 T03270000  RH  013%=      5-min Rain = 0
KNOR 212350Z 21010KT 33/01 A2973 RMK A01 T03250010  RH  014%=      5-min Rain = 0
KNOR 212355Z 20010G15KT 32/01 A2973 RMK A01 T03230012  RH  014%=      5-min Rain = 0
KNOR 220000Z 19010G16KT 32/01 A2973 RMK A01 T03220012  RH  014%=      5-min Rain = 0
KNOR 220005Z 20011KT 32/01 A2973 RMK A01 T03190014  RH  014%=      5-min Rain = 0
KNOR 220010Z 19010KT 32/02 A2973 RMK A01 T03170022  RH  015%=      5-min Rain = 0
KNOR 220015Z 19010KT 32/02 A2973 RMK A01 T03150024  RH  016%=      5-min Rain = 0
KNOR 220020Z 18009KT 31/03 A2973 RMK A01 T03120029  RH  017%=      5-min Rain = 0
KNOR 220025Z 18008KT 31/04 A2973 RMK A01 T03090038  RH  018%=      5-min Rain = 0
KNOR 220030Z 18009KT 31/04 A2973 RMK A01 T03050042  RH  019%=      5-min Rain = 0
KNOR 220035Z 18009KT 30/04 A2973 RMK A01 T03030042  RH  019%=      5-min Rain = 0
KNOR 220040Z 18009KT 30/04 A2973 RMK A01 T02990040  RH  020%=      5-min Rain = 0
KNOR 220045Z 18008KT 30/04 A2974 RMK A01 T02950042  RH  020%=      5-min Rain = 0
KNOR 220050Z 18009KT 29/04 A2974 RMK A01 T02900044  RH  021%=      5-min Rain = 0
KNOR 220055Z 18008KT 29/05 A2974 RMK A01 T02850050  RH  023%=      5-min Rain = 0
KNOR 220100Z 18009KT 28/05 A2974 RMK A01 T02780054  RH  025%=      5-min Rain = 0
KNOR 220105Z 18009KT 27/05 A2974 RMK A01 T02730052  RH  025%=      5-min Rain = 0
KNOR 220110Z 18009KT 27/05 A2974 RMK A01 T02690052  RH  025%=      5-min Rain = 0
KNOR 220115Z 17009KT 26/06 A2975 RMK A01 T02620057  RH  027%=      5-min Rain = 0
KNOR 220120Z 17009KT 25/06 A2975 RMK A01 T02520062  RH  030%=      5-min Rain = 0
KNOR 220125Z 17010KT 24/06 A2975 RMK A01 T02440064  RH  032%=      5-min Rain = 0
KNOR 220130Z 17010KT 24/07 A2975 RMK A01 T02430065  RH  033%=      5-min Rain = 0
KNOR 220135Z 17010KT 25/06 A2975 RMK A01 T02490061  RH  031%=      5-min Rain = 0
KNOR 220140Z 17010KT 25/06 A2975 RMK A01 T02510061  RH  030%=      5-min Rain = 0
KNOR 220145Z 17010KT 25/06 A2976 RMK A01 T02480060  RH  031%=      5-min Rain = 0
KNOR 220150Z 17010KT 25/06 A2976 RMK A01 T02460058  RH  031%=      5-min Rain = 0
KNOR 220155Z 17011KT 24/06 A2976 RMK A01 T02440057  RH  031%=      5-min Rain = 0
KNOR 220200Z 17010KT 24/06 A2976 RMK A01 T02410056  RH  031%=      5-min Rain = 0
KNOR 220205Z 18010KT 24/06 A2976 RMK A01 T02380058  RH  032%=      5-min Rain = 0
KNOR 220210Z 18010KT 24/06 A2977 RMK A01 T02350059  RH  033%=      5-min Rain = 0
KNOR 220215Z 18010KT 23/06 A2977 RMK A01 T02320058  RH  033%=      5-min Rain = 0
KNOR 220220Z 18010KT 23/06 A2977 RMK A01 T02310057  RH  033%=      5-min Rain = 0
KNOR 220225Z 17011KT 23/06 A2977 RMK A01 T02300056  RH  033%=      5-min Rain = 0
KNOR 220230Z 18011KT 23/06 A2978 RMK A01 T02290055  RH  033%=      5-min Rain = 0
KNOR 220235Z 18011KT 23/05 A2978 RMK A01 T02280053  RH  033%=      5-min Rain = 0
KNOR 220240Z 18012KT 23/05 A2978 RMK A01 T02290051  RH  032%=      5-min Rain = 0
KNOR 220245Z 18011KT 23/05 A2978 RMK A01 T02280051  RH  032%=      5-min Rain = 0
KNOR 220250Z 18012KT 23/05 A2978 RMK A01 T02260051  RH  033%=      5-min Rain = 0
KNOR 220255Z 19012KT 23/05 A2979 RMK A01 T02270048  RH  032%=      5-min Rain = 0
KNOR 220300Z 19011KT 23/05 A2979 RMK A01 T02280046  RH  031%=      5-min Rain = 0
KNOR 220305Z 18010KT 23/05 A2979 RMK A01 T02260046  RH  032%=      5-min Rain = 0
KNOR 220310Z 19010KT 22/05 A2979 RMK A01 T02230046  RH  032%=      5-min Rain = 0
KNOR 220315Z 19011KT 22/05 A2979 RMK A01 T02210045  RH  032%=      5-min Rain = 0
KNOR 220320Z 19012KT 22/04 A2979 RMK A01 T02230044  RH  032%=      5-min Rain = 0
KNOR 220325Z 19011KT 22/04 A2979 RMK A01 T02240044  RH  032%=      5-min Rain = 0
KNOR 220330Z 19011KT 22/04 A2979 RMK A01 T02230044  RH  032%=      5-min Rain = 0
KNOR 220335Z 19011KT 22/04 A2979 RMK A01 T02240044  RH  031%=      5-min Rain = 0
KNOR 220340Z 20011KT 23/04 A298 RMK A01 T02250043  RH  031%=      5-min Rain = 0
KNOR 220345Z 20011KT 23/04 A298 RMK A01 T02250043  RH  031%=      5-min Rain = 0
KNOR 220350Z 20010KT 22/04 A298 RMK A01 T02240043  RH  031%=      5-min Rain = 0
KNOR 220355Z 20010KT 22/04 A298 RMK A01 T02220043  RH  032%=      5-min Rain = 0
KNOR 220400Z 20011KT 22/04 A298 RMK A01 T02230042  RH  031%=      5-min Rain = 0
KNOR 220405Z 20011KT 23/04 A298 RMK A01 T02260040  RH  030%=      5-min Rain = 0
KNOR 220410Z 20011KT 23/04 A298 RMK A01 T02280038  RH  030%=      5-min Rain = 0
KNOR 220415Z 20011KT 23/04 A298 RMK A01 T02290037  RH  029%=      5-min Rain = 0
KNOR 220420Z 19010KT 23/04 A2981 RMK A01 T02260038  RH  030%=      5-min Rain = 0
KNOR 220425Z 19010KT 22/04 A2981 RMK A01 T02230038  RH  031%=      5-min Rain = 0
KNOR 220430Z 19009KT 22/04 A2981 RMK A01 T02180040  RH  032%=      5-min Rain = 0
KNOR 220435Z 19009KT 22/04 A2981 RMK A01 T02170040  RH  032%=      5-min Rain = 0
KNOR 220440Z 17011KT 21/04 A2981 RMK A01 T02140043  RH  033%=      5-min Rain = 0
KNOR 220445Z 18012KT 22/04 A2981 RMK A01 T02190039  RH  031%=      5-min Rain = 0
KNOR 220450Z 17013G18KT 22/04 A2981 RMK A01 T02210040  RH  031%=      5-min Rain = 0
KNOR 220455Z 16013KT 21/05 A2981 RMK A01 T02130045  RH  034%=      5-min Rain = 0

Page generated in 0.0107 seconds.